sensor_id;sensor_type;location;lat;lon;timestamp;P1;durP1;ratioP1;P2;durP2;ratioP2
69502;SDS011;56704;54.242;12.442;2023-04-24T00:00:54;9.48;;;4.85;;
69502;SDS011;56704;54.242;12.442;2023-04-24T00:03:22;9.05;;;4.93;;
69502;SDS011;56704;54.242;12.442;2023-04-24T00:05:49;8.80;;;3.42;;
69502;SDS011;56704;54.242;12.442;2023-04-24T00:08:16;8.13;;;3.92;;
69502;SDS011;56704;54.242;12.442;2023-04-24T00:10:42;6.53;;;3.10;;
69502;SDS011;56704;54.242;12.442;2023-04-24T00:13:09;7.63;;;4.40;;
69502;SDS011;56704;54.242;12.442;2023-04-24T00:15:36;7.65;;;3.60;;
69502;SDS011;56704;54.242;12.442;2023-04-24T00:18:04;8.82;;;3.40;;
69502;SDS011;56704;54.242;12.442;2023-04-24T00:20:31;7.53;;;3.92;;
69502;SDS011;56704;54.242;12.442;2023-04-24T00:22:58;8.43;;;3.33;;
69502;SDS011;56704;54.242;12.442;2023-04-24T00:25:25;8.40;;;3.88;;
69502;SDS011;56704;54.242;12.442;2023-04-24T00:27:51;8.10;;;3.60;;
69502;SDS011;56704;54.242;12.442;2023-04-24T00:30:18;7.75;;;3.40;;
69502;SDS011;56704;54.242;12.442;2023-04-24T00:32:44;6.20;;;2.65;;
69502;SDS011;56704;54.242;12.442;2023-04-24T00:35:12;8.90;;;3.77;;
69502;SDS011;56704;54.242;12.442;2023-04-24T00:37:39;7.00;;;3.78;;
69502;SDS011;56704;54.242;12.442;2023-04-24T00:40:06;6.47;;;3.25;;
69502;SDS011;56704;54.242;12.442;2023-04-24T00:42:33;7.10;;;3.78;;
69502;SDS011;56704;54.242;12.442;2023-04-24T00:45:00;6.20;;;3.17;;
69502;SDS011;56704;54.242;12.442;2023-04-24T00:47:28;7.50;;;3.53;;
69502;SDS011;56704;54.242;12.442;2023-04-24T00:49:55;7.57;;;3.80;;
69502;SDS011;56704;54.242;12.442;2023-04-24T00:52:23;8.10;;;3.70;;
69502;SDS011;56704;54.242;12.442;2023-04-24T00:54:50;6.65;;;3.42;;
69502;SDS011;56704;54.242;12.442;2023-04-24T00:57:16;8.57;;;3.70;;
69502;SDS011;56704;54.242;12.442;2023-04-24T00:59:43;7.70;;;3.90;;
69502;SDS011;56704;54.242;12.442;2023-04-24T01:02:10;6.80;;;3.05;;
69502;SDS011;56704;54.242;12.442;2023-04-24T01:04:37;7.05;;;3.47;;
69502;SDS011;56704;54.242;12.442;2023-04-24T01:07:05;8.00;;;3.40;;
69502;SDS011;56704;54.242;12.442;2023-04-24T01:09:36;8.40;;;4.20;;
69502;SDS011;56704;54.242;12.442;2023-04-24T01:12:05;7.87;;;4.03;;
69502;SDS011;56704;54.242;12.442;2023-04-24T01:14:33;8.40;;;4.13;;
69502;SDS011;56704;54.242;12.442;2023-04-24T01:16:59;8.48;;;3.83;;
69502;SDS011;56704;54.242;12.442;2023-04-24T01:19:26;8.85;;;3.70;;
69502;SDS011;56704;54.242;12.442;2023-04-24T01:21:53;10.13;;;4.25;;
69502;SDS011;56704;54.242;12.442;2023-04-24T01:24:24;9.37;;;4.30;;
69502;SDS011;56704;54.242;12.442;2023-04-24T01:26:51;9.57;;;4.68;;
69502;SDS011;56704;54.242;12.442;2023-04-24T01:29:17;9.30;;;3.90;;
69502;SDS011;56704;54.242;12.442;2023-04-24T01:31:44;9.85;;;4.53;;
69502;SDS011;56704;54.242;12.442;2023-04-24T01:34:11;9.52;;;4.88;;
69502;SDS011;56704;54.242;12.442;2023-04-24T01:36:38;6.93;;;3.60;;
69502;SDS011;56704;54.242;12.442;2023-04-24T01:39:05;14.35;;;4.90;;
69502;SDS011;56704;54.242;12.442;2023-04-24T01:41:34;9.10;;;3.90;;
69502;SDS011;56704;54.242;12.442;2023-04-24T01:44:00;10.50;;;4.38;;
69502;SDS011;56704;54.242;12.442;2023-04-24T01:46:27;10.95;;;5.80;;
69502;SDS011;56704;54.242;12.442;2023-04-24T01:48:55;9.20;;;4.40;;
69502;SDS011;56704;54.242;12.442;2023-04-24T01:51:22;9.60;;;4.82;;
69502;SDS011;56704;54.242;12.442;2023-04-24T01:53:49;9.40;;;3.88;;
69502;SDS011;56704;54.242;12.442;2023-04-24T01:56:15;9.25;;;4.20;;
69502;SDS011;56704;54.242;12.442;2023-04-24T01:58:44;9.02;;;4.35;;
69502;SDS011;56704;54.242;12.442;2023-04-24T02:01:14;11.63;;;4.70;;
69502;SDS011;56704;54.242;12.442;2023-04-24T02:03:43;8.90;;;4.22;;
69502;SDS011;56704;54.242;12.442;2023-04-24T02:06:10;10.15;;;4.82;;
69502;SDS011;56704;54.242;12.442;2023-04-24T02:08:36;10.23;;;4.25;;
69502;SDS011;56704;54.242;12.442;2023-04-24T02:11:03;12.82;;;4.47;;
69502;SDS011;56704;54.242;12.442;2023-04-24T02:13:30;10.77;;;5.40;;
69502;SDS011;56704;54.242;12.442;2023-04-24T02:15:59;10.10;;;4.28;;
69502;SDS011;56704;54.242;12.442;2023-04-24T02:18:25;10.60;;;4.30;;
69502;SDS011;56704;54.242;12.442;2023-04-24T02:20:52;9.63;;;4.78;;
69502;SDS011;56704;54.242;12.442;2023-04-24T02:23:19;9.52;;;4.90;;
69502;SDS011;56704;54.242;12.442;2023-04-24T02:25:45;9.97;;;4.50;;
69502;SDS011;56704;54.242;12.442;2023-04-24T02:28:12;11.05;;;5.82;;
69502;SDS011;56704;54.242;12.442;2023-04-24T02:30:38;10.63;;;4.57;;
69502;SDS011;56704;54.242;12.442;2023-04-24T02:33:06;11.63;;;5.95;;
69502;SDS011;56704;54.242;12.442;2023-04-24T02:35:33;8.70;;;4.45;;
69502;SDS011;56704;54.242;12.442;2023-04-24T02:37:59;9.90;;;4.33;;
69502;SDS011;56704;54.242;12.442;2023-04-24T02:40:26;9.73;;;5.13;;
69502;SDS011;56704;54.242;12.442;2023-04-24T02:42:53;8.93;;;4.80;;
69502;SDS011;56704;54.242;12.442;2023-04-24T02:45:20;11.10;;;6.38;;
69502;SDS011;56704;54.242;12.442;2023-04-24T02:47:47;10.63;;;5.53;;
69502;SDS011;56704;54.242;12.442;2023-04-24T02:50:15;10.03;;;5.53;;
69502;SDS011;56704;54.242;12.442;2023-04-24T02:52:42;10.77;;;5.50;;
69502;SDS011;56704;54.242;12.442;2023-04-24T02:55:08;11.35;;;4.97;;
69502;SDS011;56704;54.242;12.442;2023-04-24T02:57:35;10.23;;;5.47;;
69502;SDS011;56704;54.242;12.442;2023-04-24T03:00:02;10.52;;;5.72;;
69502;SDS011;56704;54.242;12.442;2023-04-24T03:02:32;9.90;;;4.83;;
69502;SDS011;56704;54.242;12.442;2023-04-24T03:04:58;11.27;;;5.30;;
69502;SDS011;56704;54.242;12.442;2023-04-24T03:07:26;12.57;;;7.07;;
69502;SDS011;56704;54.242;12.442;2023-04-24T03:09:53;8.93;;;4.22;;
69502;SDS011;56704;54.242;12.442;2023-04-24T03:12:20;11.15;;;5.90;;
69502;SDS011;56704;54.242;12.442;2023-04-24T03:14:48;12.53;;;5.93;;
69502;SDS011;56704;54.242;12.442;2023-04-24T03:17:15;12.15;;;5.05;;
69502;SDS011;56704;54.242;12.442;2023-04-24T03:19:41;12.60;;;6.55;;
69502;SDS011;56704;54.242;12.442;2023-04-24T03:22:08;11.48;;;5.80;;
69502;SDS011;56704;54.242;12.442;2023-04-24T03:24:36;10.85;;;5.95;;
69502;SDS011;56704;54.242;12.442;2023-04-24T03:27:03;12.43;;;6.33;;
69502;SDS011;56704;54.242;12.442;2023-04-24T03:29:29;13.93;;;6.93;;
69502;SDS011;56704;54.242;12.442;2023-04-24T03:31:56;10.10;;;5.30;;
69502;SDS011;56704;54.242;12.442;2023-04-24T03:34:22;9.35;;;4.72;;
69502;SDS011;56704;54.242;12.442;2023-04-24T03:36:49;9.18;;;4.22;;
69502;SDS011;56704;54.242;12.442;2023-04-24T03:39:16;13.77;;;7.23;;
69502;SDS011;56704;54.242;12.442;2023-04-24T03:41:43;12.95;;;6.25;;
69502;SDS011;56704;54.242;12.442;2023-04-24T03:44:10;11.68;;;5.40;;
69502;SDS011;56704;54.242;12.442;2023-04-24T03:46:36;16.00;;;7.00;;
69502;SDS011;56704;54.242;12.442;2023-04-24T03:49:03;13.02;;;6.05;;
69502;SDS011;56704;54.242;12.442;2023-04-24T03:51:30;14.63;;;5.87;;
69502;SDS011;56704;54.242;12.442;2023-04-24T03:53:57;13.63;;;6.80;;
69502;SDS011;56704;54.242;12.442;2023-04-24T03:56:23;13.10;;;7.05;;
69502;SDS011;56704;54.242;12.442;2023-04-24T03:58:51;14.82;;;7.35;;
69502;SDS011;56704;54.242;12.442;2023-04-24T04:01:18;12.43;;;5.07;;
69502;SDS011;56704;54.242;12.442;2023-04-24T04:03:45;13.27;;;6.17;;
69502;SDS011;56704;54.242;12.442;2023-04-24T04:06:12;15.18;;;7.03;;
69502;SDS011;56704;54.242;12.442;2023-04-24T04:08:39;15.27;;;6.95;;
69502;SDS011;56704;54.242;12.442;2023-04-24T04:11:05;10.60;;;4.30;;
69502;SDS011;56704;54.242;12.442;2023-04-24T04:13:32;13.07;;;5.47;;
69502;SDS011;56704;54.242;12.442;2023-04-24T04:16:00;15.43;;;7.60;;
69502;SDS011;56704;54.242;12.442;2023-04-24T04:18:26;13.55;;;6.95;;
69502;SDS011;56704;54.242;12.442;2023-04-24T04:20:53;16.40;;;7.05;;
69502;SDS011;56704;54.242;12.442;2023-04-24T04:23:19;14.13;;;6.70;;
69502;SDS011;56704;54.242;12.442;2023-04-24T04:25:46;15.93;;;7.57;;
69502;SDS011;56704;54.242;12.442;2023-04-24T04:28:13;13.67;;;5.90;;
69502;SDS011;56704;54.242;12.442;2023-04-24T04:30:40;17.17;;;8.30;;
69502;SDS011;56704;54.242;12.442;2023-04-24T04:33:08;15.65;;;7.25;;
69502;SDS011;56704;54.242;12.442;2023-04-24T04:35:35;13.98;;;7.45;;
69502;SDS011;56704;54.242;12.442;2023-04-24T04:38:02;18.17;;;8.85;;
69502;SDS011;56704;54.242;12.442;2023-04-24T04:40:29;15.20;;;6.53;;
69502;SDS011;56704;54.242;12.442;2023-04-24T04:42:56;16.17;;;7.22;;
69502;SDS011;56704;54.242;12.442;2023-04-24T04:45:23;17.35;;;8.40;;
69502;SDS011;56704;54.242;12.442;2023-04-24T04:47:51;15.43;;;7.15;;
69502;SDS011;56704;54.242;12.442;2023-04-24T04:50:21;15.95;;;7.30;;
69502;SDS011;56704;54.242;12.442;2023-04-24T04:52:48;18.60;;;7.30;;
69502;SDS011;56704;54.242;12.442;2023-04-24T04:55:14;15.60;;;6.43;;
69502;SDS011;56704;54.242;12.442;2023-04-24T04:57:46;19.23;;;8.55;;
69502;SDS011;56704;54.242;12.442;2023-04-24T05:00:13;15.85;;;8.48;;
69502;SDS011;56704;54.242;12.442;2023-04-24T05:02:40;15.65;;;6.45;;
69502;SDS011;56704;54.242;12.442;2023-04-24T05:05:07;18.63;;;8.43;;
69502;SDS011;56704;54.242;12.442;2023-04-24T05:07:36;16.33;;;7.45;;
69502;SDS011;56704;54.242;12.442;2023-04-24T05:10:03;17.48;;;8.77;;
69502;SDS011;56704;54.242;12.442;2023-04-24T05:12:30;16.02;;;7.43;;
69502;SDS011;56704;54.242;12.442;2023-04-24T05:14:56;16.02;;;7.28;;
69502;SDS011;56704;54.242;12.442;2023-04-24T05:17:23;14.60;;;6.77;;
69502;SDS011;56704;54.242;12.442;2023-04-24T05:19:49;14.35;;;6.97;;
69502;SDS011;56704;54.242;12.442;2023-04-24T05:22:16;15.32;;;7.65;;
69502;SDS011;56704;54.242;12.442;2023-04-24T05:24:45;15.13;;;7.10;;
69502;SDS011;56704;54.242;12.442;2023-04-24T05:27:11;16.23;;;6.70;;
69502;SDS011;56704;54.242;12.442;2023-04-24T05:29:38;12.80;;;6.20;;
69502;SDS011;56704;54.242;12.442;2023-04-24T05:32:05;15.65;;;7.53;;
69502;SDS011;56704;54.242;12.442;2023-04-24T05:34:32;17.60;;;8.60;;
69502;SDS011;56704;54.242;12.442;2023-04-24T05:36:58;13.20;;;5.53;;
69502;SDS011;56704;54.242;12.442;2023-04-24T05:39:25;18.13;;;8.35;;
69502;SDS011;56704;54.242;12.442;2023-04-24T05:41:53;15.80;;;7.80;;
69502;SDS011;56704;54.242;12.442;2023-04-24T05:44:20;13.27;;;6.18;;
69502;SDS011;56704;54.242;12.442;2023-04-24T05:46:46;13.55;;;7.10;;
69502;SDS011;56704;54.242;12.442;2023-04-24T05:49:13;15.38;;;7.13;;
69502;SDS011;56704;54.242;12.442;2023-04-24T05:51:39;15.98;;;7.65;;
69502;SDS011;56704;54.242;12.442;2023-04-24T05:54:06;13.50;;;6.37;;
69502;SDS011;56704;54.242;12.442;2023-04-24T05:56:33;14.00;;;6.53;;
69502;SDS011;56704;54.242;12.442;2023-04-24T05:59:01;13.07;;;6.18;;
69502;SDS011;56704;54.242;12.442;2023-04-24T06:01:28;11.95;;;5.90;;
69502;SDS011;56704;54.242;12.442;2023-04-24T06:03:56;13.00;;;6.20;;
69502;SDS011;56704;54.242;12.442;2023-04-24T06:06:23;11.33;;;5.70;;
69502;SDS011;56704;54.242;12.442;2023-04-24T06:08:51;13.60;;;6.38;;
69502;SDS011;56704;54.242;12.442;2023-04-24T06:11:17;12.60;;;6.55;;
69502;SDS011;56704;54.242;12.442;2023-04-24T06:13:44;12.57;;;6.13;;
69502;SDS011;56704;54.242;12.442;2023-04-24T06:16:12;14.82;;;6.57;;
69502;SDS011;56704;54.242;12.442;2023-04-24T06:18:39;12.23;;;6.00;;
69502;SDS011;56704;54.242;12.442;2023-04-24T06:21:05;13.25;;;6.82;;
69502;SDS011;56704;54.242;12.442;2023-04-24T06:23:32;11.07;;;4.80;;
69502;SDS011;56704;54.242;12.442;2023-04-24T06:25:58;13.73;;;6.85;;
69502;SDS011;56704;54.242;12.442;2023-04-24T06:28:25;11.70;;;5.65;;
69502;SDS011;56704;54.242;12.442;2023-04-24T06:30:52;10.47;;;5.70;;
69502;SDS011;56704;54.242;12.442;2023-04-24T06:33:20;11.48;;;5.95;;
69502;SDS011;56704;54.242;12.442;2023-04-24T06:35:46;10.55;;;5.65;;
69502;SDS011;56704;54.242;12.442;2023-04-24T06:38:13;9.88;;;5.03;;
69502;SDS011;56704;54.242;12.442;2023-04-24T06:40:41;9.27;;;4.80;;
69502;SDS011;56704;54.242;12.442;2023-04-24T06:43:07;8.20;;;4.60;;
69502;SDS011;56704;54.242;12.442;2023-04-24T06:45:34;7.43;;;4.35;;
69502;SDS011;56704;54.242;12.442;2023-04-24T06:48:01;7.90;;;4.38;;
69502;SDS011;56704;54.242;12.442;2023-04-24T06:50:29;8.00;;;3.70;;
69502;SDS011;56704;54.242;12.442;2023-04-24T06:52:56;6.28;;;2.95;;
69502;SDS011;56704;54.242;12.442;2023-04-24T06:55:22;5.13;;;1.97;;
69502;SDS011;56704;54.242;12.442;2023-04-24T06:57:49;5.25;;;2.40;;
69502;SDS011;56704;54.242;12.442;2023-04-24T07:00:15;6.38;;;2.75;;
69502;SDS011;56704;54.242;12.442;2023-04-24T07:02:42;5.53;;;2.72;;
69502;SDS011;56704;54.242;12.442;2023-04-24T07:05:09;7.57;;;1.77;;
69502;SDS011;56704;54.242;12.442;2023-04-24T07:07:37;5.60;;;2.90;;
69502;SDS011;56704;54.242;12.442;2023-04-24T07:10:05;5.10;;;1.92;;
69502;SDS011;56704;54.242;12.442;2023-04-24T07:12:33;5.63;;;1.95;;
69502;SDS011;56704;54.242;12.442;2023-04-24T07:15:00;11.23;;;2.00;;
69502;SDS011;56704;54.242;12.442;2023-04-24T07:17:27;4.20;;;2.00;;
69502;SDS011;56704;54.242;12.442;2023-04-24T07:19:53;3.83;;;1.73;;
69502;SDS011;56704;54.242;12.442;2023-04-24T07:22:20;4.13;;;1.63;;
69502;SDS011;56704;54.242;12.442;2023-04-24T07:24:48;2.70;;;0.77;;
69502;SDS011;56704;54.242;12.442;2023-04-24T07:27:14;3.63;;;1.30;;
69502;SDS011;56704;54.242;12.442;2023-04-24T07:29:41;4.85;;;1.50;;
69502;SDS011;56704;54.242;12.442;2023-04-24T07:32:08;3.97;;;1.40;;
69502;SDS011;56704;54.242;12.442;2023-04-24T07:34:35;2.55;;;0.98;;
69502;SDS011;56704;54.242;12.442;2023-04-24T07:37:02;2.70;;;1.15;;
69502;SDS011;56704;54.242;12.442;2023-04-24T07:39:28;3.03;;;0.90;;
69502;SDS011;56704;54.242;12.442;2023-04-24T07:41:57;3.80;;;1.02;;
69502;SDS011;56704;54.242;12.442;2023-04-24T07:44:25;3.27;;;1.10;;
69502;SDS011;56704;54.242;12.442;2023-04-24T07:46:52;2.15;;;0.68;;
69502;SDS011;56704;54.242;12.442;2023-04-24T07:49:19;2.97;;;1.10;;
69502;SDS011;56704;54.242;12.442;2023-04-24T07:51:46;3.03;;;1.30;;
69502;SDS011;56704;54.242;12.442;2023-04-24T07:54:12;3.45;;;0.95;;
69502;SDS011;56704;54.242;12.442;2023-04-24T07:56:40;2.87;;;1.13;;
69502;SDS011;56704;54.242;12.442;2023-04-24T07:59:09;2.97;;;1.20;;
69502;SDS011;56704;54.242;12.442;2023-04-24T08:01:36;2.30;;;0.85;;
69502;SDS011;56704;54.242;12.442;2023-04-24T08:04:03;1.65;;;0.50;;
69502;SDS011;56704;54.242;12.442;2023-04-24T08:06:29;2.67;;;1.00;;
69502;SDS011;56704;54.242;12.442;2023-04-24T08:08:57;2.33;;;0.90;;
69502;SDS011;56704;54.242;12.442;2023-04-24T08:11:23;2.67;;;0.55;;
69502;SDS011;56704;54.242;12.442;2023-04-24T08:13:50;2.38;;;0.90;;
69502;SDS011;56704;54.242;12.442;2023-04-24T08:16:18;2.88;;;0.77;;
69502;SDS011;56704;54.242;12.442;2023-04-24T08:18:45;3.13;;;0.80;;
69502;SDS011;56704;54.242;12.442;2023-04-24T08:21:11;3.10;;;0.60;;
69502;SDS011;56704;54.242;12.442;2023-04-24T08:23:42;3.00;;;0.73;;
69502;SDS011;56704;54.242;12.442;2023-04-24T08:26:08;3.25;;;0.93;;
69502;SDS011;56704;54.242;12.442;2023-04-24T08:28:36;1.77;;;0.60;;
69502;SDS011;56704;54.242;12.442;2023-04-24T08:31:02;2.05;;;0.63;;
69502;SDS011;56704;54.242;12.442;2023-04-24T08:33:31;1.97;;;0.80;;
69502;SDS011;56704;54.242;12.442;2023-04-24T08:35:59;1.92;;;0.60;;
69502;SDS011;56704;54.242;12.442;2023-04-24T08:38:26;2.55;;;0.85;;
69502;SDS011;56704;54.242;12.442;2023-04-24T08:40:52;2.10;;;0.70;;
69502;SDS011;56704;54.242;12.442;2023-04-24T08:43:20;3.08;;;0.70;;
69502;SDS011;56704;54.242;12.442;2023-04-24T08:45:47;2.37;;;0.53;;
69502;SDS011;56704;54.242;12.442;2023-04-24T08:48:14;1.88;;;0.47;;
69502;SDS011;56704;54.242;12.442;2023-04-24T08:50:43;2.08;;;0.57;;
69502;SDS011;56704;54.242;12.442;2023-04-24T08:53:09;2.38;;;0.73;;
69502;SDS011;56704;54.242;12.442;2023-04-24T08:55:37;2.83;;;0.70;;
69502;SDS011;56704;54.242;12.442;2023-04-24T08:58:04;3.03;;;0.83;;
69502;SDS011;56704;54.242;12.442;2023-04-24T09:00:30;1.80;;;0.60;;
69502;SDS011;56704;54.242;12.442;2023-04-24T09:03:00;2.63;;;0.60;;
69502;SDS011;56704;54.242;12.442;2023-04-24T09:05:27;2.13;;;0.80;;
69502;SDS011;56704;54.242;12.442;2023-04-24T09:07:56;2.25;;;0.68;;
69502;SDS011;56704;54.242;12.442;2023-04-24T09:10:23;2.87;;;0.73;;
69502;SDS011;56704;54.242;12.442;2023-04-24T09:12:51;2.53;;;0.88;;
69502;SDS011;56704;54.242;12.442;2023-04-24T09:15:18;3.15;;;0.70;;
69502;SDS011;56704;54.242;12.442;2023-04-24T09:17:46;1.65;;;0.43;;
69502;SDS011;56704;54.242;12.442;2023-04-24T09:20:13;2.25;;;0.60;;
69502;SDS011;56704;54.242;12.442;2023-04-24T09:22:40;2.60;;;0.70;;
69502;SDS011;56704;54.242;12.442;2023-04-24T09:25:09;2.60;;;0.82;;
69502;SDS011;56704;54.242;12.442;2023-04-24T09:27:38;3.65;;;0.70;;
69502;SDS011;56704;54.242;12.442;2023-04-24T09:30:08;2.10;;;0.80;;
69502;SDS011;56704;54.242;12.442;2023-04-24T09:32:35;2.10;;;0.63;;
69502;SDS011;56704;54.242;12.442;2023-04-24T09:35:06;1.07;;;0.37;;
69502;SDS011;56704;54.242;12.442;2023-04-24T09:37:37;1.67;;;0.50;;
69502;SDS011;56704;54.242;12.442;2023-04-24T09:40:11;1.90;;;0.50;;
69502;SDS011;56704;54.242;12.442;2023-04-24T09:42:38;2.35;;;0.88;;
69502;SDS011;56704;54.242;12.442;2023-04-24T09:45:08;2.30;;;0.75;;
69502;SDS011;56704;54.242;12.442;2023-04-24T09:47:36;1.77;;;0.60;;
69502;SDS011;56704;54.242;12.442;2023-04-24T09:50:13;2.00;;;0.50;;
69502;SDS011;56704;54.242;12.442;2023-04-24T09:52:41;1.92;;;0.60;;
69502;SDS011;56704;54.242;12.442;2023-04-24T09:55:15;2.13;;;0.50;;
69502;SDS011;56704;54.242;12.442;2023-04-24T09:57:48;3.25;;;0.88;;
69502;SDS011;56704;54.242;12.442;2023-04-24T10:00:21;2.50;;;0.53;;
69502;SDS011;56704;54.242;12.442;2023-04-24T10:02:55;2.30;;;0.60;;
69502;SDS011;56704;54.242;12.442;2023-04-24T10:05:29;2.10;;;0.60;;
69502;SDS011;56704;54.242;12.442;2023-04-24T10:07:58;4.63;;;1.00;;
69502;SDS011;56704;54.242;12.442;2023-04-24T10:10:32;2.63;;;0.70;;
69502;SDS011;56704;54.242;12.442;2023-04-24T10:13:00;4.10;;;0.90;;
69502;SDS011;56704;54.242;12.442;2023-04-24T10:15:27;1.77;;;0.55;;
69502;SDS011;56704;54.242;12.442;2023-04-24T10:17:54;1.92;;;0.50;;
69502;SDS011;56704;54.242;12.442;2023-04-24T10:20:24;1.80;;;0.50;;
69502;SDS011;56704;54.242;12.442;2023-04-24T10:22:54;3.00;;;0.70;;
69502;SDS011;56704;54.242;12.442;2023-04-24T10:25:22;2.10;;;0.70;;
69502;SDS011;56704;54.242;12.442;2023-04-24T10:27:51;2.35;;;0.60;;
69502;SDS011;56704;54.242;12.442;2023-04-24T10:30:22;1.60;;;0.50;;
69502;SDS011;56704;54.242;12.442;2023-04-24T10:32:49;2.72;;;0.70;;
69502;SDS011;56704;54.242;12.442;2023-04-24T10:35:15;1.60;;;0.50;;
69502;SDS011;56704;54.242;12.442;2023-04-24T10:37:48;1.70;;;0.50;;
69502;SDS011;56704;54.242;12.442;2023-04-24T10:40:17;1.85;;;0.60;;
69502;SDS011;56704;54.242;12.442;2023-04-24T10:42:46;2.70;;;0.88;;
69502;SDS011;56704;54.242;12.442;2023-04-24T10:45:18;2.25;;;0.70;;
69502;SDS011;56704;54.242;12.442;2023-04-24T10:47:53;3.30;;;0.75;;
69502;SDS011;56704;54.242;12.442;2023-04-24T10:50:23;2.00;;;0.73;;
69502;SDS011;56704;54.242;12.442;2023-04-24T10:52:50;2.25;;;0.50;;
69502;SDS011;56704;54.242;12.442;2023-04-24T10:55:29;2.42;;;0.75;;
69502;SDS011;56704;54.242;12.442;2023-04-24T10:58:05;1.77;;;0.68;;
69502;SDS011;56704;54.242;12.442;2023-04-24T11:00:34;2.00;;;0.70;;
69502;SDS011;56704;54.242;12.442;2023-04-24T11:03:04;1.80;;;0.60;;
69502;SDS011;56704;54.242;12.442;2023-04-24T11:08:26;2.00;;;0.60;;
69502;SDS011;56704;54.242;12.442;2023-04-24T11:11:02;2.80;;;0.80;;
69502;SDS011;56704;54.242;12.442;2023-04-24T11:16:30;2.03;;;0.50;;
69502;SDS011;56704;54.242;12.442;2023-04-24T11:19:02;2.88;;;0.45;;
69502;SDS011;56704;54.242;12.442;2023-04-24T11:21:31;3.20;;;0.50;;
69502;SDS011;56704;54.242;12.442;2023-04-24T11:23:58;1.90;;;0.60;;
69502;SDS011;56704;54.242;12.442;2023-04-24T11:26:53;2.88;;;0.93;;
69502;SDS011;56704;54.242;12.442;2023-04-24T11:29:21;3.30;;;0.70;;
69502;SDS011;56704;54.242;12.442;2023-04-24T11:31:50;1.58;;;0.60;;
69502;SDS011;56704;54.242;12.442;2023-04-24T11:34:17;3.33;;;0.90;;
69502;SDS011;56704;54.242;12.442;2023-04-24T11:36:44;2.65;;;0.60;;
69502;SDS011;56704;54.242;12.442;2023-04-24T11:39:11;2.10;;;0.60;;
69502;SDS011;56704;54.242;12.442;2023-04-24T11:41:38;1.37;;;0.40;;
69502;SDS011;56704;54.242;12.442;2023-04-24T11:44:06;4.07;;;0.50;;
69502;SDS011;56704;54.242;12.442;2023-04-24T11:46:33;1.88;;;0.50;;
69502;SDS011;56704;54.242;12.442;2023-04-24T11:49:01;1.95;;;0.60;;
69502;SDS011;56704;54.242;12.442;2023-04-24T11:51:27;1.55;;;0.57;;
69502;SDS011;56704;54.242;12.442;2023-04-24T11:53:54;2.90;;;0.67;;
69502;SDS011;56704;54.242;12.442;2023-04-24T11:56:21;2.75;;;0.70;;
69502;SDS011;56704;54.242;12.442;2023-04-24T11:58:48;1.40;;;0.40;;
69502;SDS011;56704;54.242;12.442;2023-04-24T12:01:18;2.38;;;0.52;;
69502;SDS011;56704;54.242;12.442;2023-04-24T12:03:47;1.85;;;0.52;;
69502;SDS011;56704;54.242;12.442;2023-04-24T12:06:17;1.23;;;0.33;;
69502;SDS011;56704;54.242;12.442;2023-04-24T12:08:45;2.30;;;0.40;;
69502;SDS011;56704;54.242;12.442;2023-04-24T12:11:14;1.23;;;0.40;;
69502;SDS011;56704;54.242;12.442;2023-04-24T12:13:42;2.47;;;0.40;;
69502;SDS011;56704;54.242;12.442;2023-04-24T12:16:09;2.20;;;0.65;;
69502;SDS011;56704;54.242;12.442;2023-04-24T12:18:40;1.30;;;0.40;;
69502;SDS011;56704;54.242;12.442;2023-04-24T12:21:14;1.67;;;0.50;;
69502;SDS011;56704;54.242;12.442;2023-04-24T12:23:43;1.10;;;0.40;;
69502;SDS011;56704;54.242;12.442;2023-04-24T12:26:10;1.55;;;0.50;;
69502;SDS011;56704;54.242;12.442;2023-04-24T12:28:37;1.60;;;0.40;;
69502;SDS011;56704;54.242;12.442;2023-04-24T12:31:05;2.10;;;0.47;;
69502;SDS011;56704;54.242;12.442;2023-04-24T12:33:33;1.75;;;0.50;;
69502;SDS011;56704;54.242;12.442;2023-04-24T12:36:00;1.48;;;0.35;;
69502;SDS011;56704;54.242;12.442;2023-04-24T12:38:28;1.95;;;0.38;;
69502;SDS011;56704;54.242;12.442;2023-04-24T12:41:02;2.53;;;0.57;;
69502;SDS011;56704;54.242;12.442;2023-04-24T12:43:30;1.90;;;0.50;;
69502;SDS011;56704;54.242;12.442;2023-04-24T12:45:56;1.40;;;0.50;;
69502;SDS011;56704;54.242;12.442;2023-04-24T12:48:24;1.73;;;0.40;;
69502;SDS011;56704;54.242;12.442;2023-04-24T12:50:50;1.50;;;0.45;;
69502;SDS011;56704;54.242;12.442;2023-04-24T12:53:17;1.40;;;0.40;;
69502;SDS011;56704;54.242;12.442;2023-04-24T12:55:45;1.27;;;0.30;;
69502;SDS011;56704;54.242;12.442;2023-04-24T12:58:17;1.40;;;0.40;;
69502;SDS011;56704;54.242;12.442;2023-04-24T13:00:43;1.60;;;0.40;;
69502;SDS011;56704;54.242;12.442;2023-04-24T13:03:11;1.85;;;0.50;;
69502;SDS011;56704;54.242;12.442;2023-04-24T13:05:37;1.20;;;0.32;;
69502;SDS011;56704;54.242;12.442;2023-04-24T13:08:04;1.07;;;0.30;;
69502;SDS011;56704;54.242;12.442;2023-04-24T13:10:31;1.45;;;0.43;;
69502;SDS011;56704;54.242;12.442;2023-04-24T13:12:59;2.13;;;0.50;;
69502;SDS011;56704;54.242;12.442;2023-04-24T13:15:25;1.67;;;0.47;;
69502;SDS011;56704;54.242;12.442;2023-04-24T13:17:52;1.63;;;0.50;;
69502;SDS011;56704;54.242;12.442;2023-04-24T13:20:19;1.50;;;0.33;;
69502;SDS011;56704;54.242;12.442;2023-04-24T13:22:45;1.90;;;0.57;;
69502;SDS011;56704;54.242;12.442;2023-04-24T13:25:12;3.05;;;0.80;;
69502;SDS011;56704;54.242;12.442;2023-04-24T13:27:41;1.70;;;0.60;;
69502;SDS011;56704;54.242;12.442;2023-04-24T13:30:10;2.35;;;1.10;;
69502;SDS011;56704;54.242;12.442;2023-04-24T13:32:37;3.33;;;1.30;;
69502;SDS011;56704;54.242;12.442;2023-04-24T13:35:04;3.55;;;0.70;;
69502;SDS011;56704;54.242;12.442;2023-04-24T13:37:31;2.92;;;0.73;;
69502;SDS011;56704;54.242;12.442;2023-04-24T13:39:58;2.33;;;0.70;;
69502;SDS011;56704;54.242;12.442;2023-04-24T13:42:24;3.83;;;1.00;;
69502;SDS011;56704;54.242;12.442;2023-04-24T13:44:51;2.50;;;0.70;;
69502;SDS011;56704;54.242;12.442;2023-04-24T13:47:20;2.00;;;0.65;;
69502;SDS011;56704;54.242;12.442;2023-04-24T13:49:47;2.47;;;0.73;;
69502;SDS011;56704;54.242;12.442;2023-04-24T13:52:13;1.90;;;0.50;;
69502;SDS011;56704;54.242;12.442;2023-04-24T13:54:40;2.92;;;0.98;;
69502;SDS011;56704;54.242;12.442;2023-04-24T13:57:07;2.77;;;0.80;;
69502;SDS011;56704;54.242;12.442;2023-04-24T13:59:33;1.90;;;0.45;;
69502;SDS011;56704;54.242;12.442;2023-04-24T14:02:00;1.70;;;0.50;;
69502;SDS011;56704;54.242;12.442;2023-04-24T14:04:28;3.58;;;0.60;;
69502;SDS011;56704;54.242;12.442;2023-04-24T14:06:55;1.50;;;0.40;;
69502;SDS011;56704;54.242;12.442;2023-04-24T14:09:22;2.60;;;0.57;;
69502;SDS011;56704;54.242;12.442;2023-04-24T14:11:48;3.08;;;0.70;;
69502;SDS011;56704;54.242;12.442;2023-04-24T14:14:15;3.28;;;0.60;;
69502;SDS011;56704;54.242;12.442;2023-04-24T14:16:42;2.75;;;0.90;;
69502;SDS011;56704;54.242;12.442;2023-04-24T14:19:08;2.72;;;0.63;;
69502;SDS011;56704;54.242;12.442;2023-04-24T14:21:36;2.60;;;0.60;;
69502;SDS011;56704;54.242;12.442;2023-04-24T14:24:03;2.13;;;0.50;;
69502;SDS011;56704;54.242;12.442;2023-04-24T14:26:29;3.45;;;0.55;;
69502;SDS011;56704;54.242;12.442;2023-04-24T14:28:56;2.40;;;0.60;;
69502;SDS011;56704;54.242;12.442;2023-04-24T14:31:23;2.75;;;0.60;;
69502;SDS011;56704;54.242;12.442;2023-04-24T14:33:50;2.20;;;0.40;;
69502;SDS011;56704;54.242;12.442;2023-04-24T14:36:17;2.22;;;0.60;;
69502;SDS011;56704;54.242;12.442;2023-04-24T14:38:44;4.10;;;0.75;;